Portland Troutdale Airport Portland US
ICAO: KTTD
IATA: TTD
Category: Medium
Scheduled Services: No

Elevation: 39 ft
TransAlt. 18000 ft.

Airport Communications:
APP:118.1
ASOS:135.625
CTAF:120.9
DEP:124.35
GND:121.8
TROUTDALE TWR:120.9
UNICOM:122.95

KTTD Zoom In..

If you have problems with the map follow the link
https://www.worldairports.se/pages/airport.php?
ICAO=KTTD

Runways:

(A) RW 07 length 5399 ft width 150 ft
---- / hdg 70

(B) RW 25 length 5399 ft width 150 ft
---- / hdg 250

Location; KTTD
Day. 12 / Time. 10.53 Zulu
* Altimeter: 30.00
* Temperature: 04° c. 39.2°f.
* Wind from: KTT° Speed D kn.
Dewpoint: 03° c.
Visibility: 10 Statute Miles.
Clouds: Broken 6500 ft.

KTTD 121053Z AUTO 00000KT 10SM BKN065 04/03 A3000 RMK AO2 SLP159 T00440028


Wind From KTT°
Speed D kn.

 
 
jpsmedia worldairports.se 2019   terms of use